createdAt,value
2023-04-11T00:01:43.649Z,11.42
2023-04-11T00:06:49.062Z,11.40
2023-04-11T00:11:57.219Z,11.28
2023-04-11T00:17:06.251Z,11.25
2023-04-11T00:22:11.661Z,11.37
2023-04-11T00:27:16.736Z,11.33
2023-04-11T00:32:26.797Z,11.23
2023-04-11T00:37:36.646Z,11.29
2023-04-11T00:42:42.051Z,11.16
2023-04-11T00:47:50.043Z,11.26
2023-04-11T00:52:57.119Z,11.11
2023-04-11T00:58:02.430Z,11.00
2023-04-11T01:03:10.431Z,10.86
2023-04-11T01:08:16.838Z,10.85
2023-04-11T01:13:22.937Z,10.85
2023-04-11T01:18:30.929Z,10.79
2023-04-11T01:23:38.734Z,10.82
2023-04-11T01:28:43.856Z,10.96
2023-04-11T01:33:50.288Z,11.04
2023-04-11T01:38:58.529Z,10.90
2023-04-11T01:44:04.234Z,11.00
2023-04-11T01:49:10.734Z,11.11
2023-04-11T01:54:18.495Z,10.89
2023-04-11T01:59:24.416Z,10.74
2023-04-11T02:04:30.118Z,10.58
2023-04-11T02:09:37.930Z,10.56
2023-04-11T02:14:45.176Z,10.43
2023-04-11T02:19:52.133Z,10.51
2023-04-11T02:24:59.994Z,10.42
2023-04-11T02:30:06.322Z,10.46
2023-04-11T02:35:14.168Z,10.42
2023-04-11T02:40:22.493Z,10.48
2023-04-11T02:45:33.527Z,10.46
2023-04-11T02:50:41.384Z,10.46
2023-04-11T02:55:50.563Z,10.50
2023-04-11T03:00:56.567Z,10.44
2023-04-11T03:06:02.318Z,10.44
2023-04-11T03:11:11.328Z,10.57
2023-04-11T03:16:16.921Z,10.61
2023-04-11T03:21:22.294Z,10.65
2023-04-11T03:26:30.729Z,10.61
2023-04-11T03:31:40.530Z,10.75
2023-04-11T03:36:45.893Z,10.56
2023-04-11T03:41:54.412Z,10.50
2023-04-11T03:46:59.720Z,10.75
2023-04-11T03:52:17.900Z,10.78
2023-04-11T03:57:29.713Z,10.75
2023-04-11T04:02:36.716Z,10.70
2023-04-11T04:07:45.317Z,10.70
2023-04-11T04:13:02.080Z,10.55
2023-04-11T04:18:14.380Z,10.64
2023-04-11T04:23:26.280Z,10.48
2023-04-11T04:29:04.642Z,10.38
2023-04-11T04:34:24.942Z,10.25
2023-04-11T04:39:34.286Z,10.24
2023-04-11T04:44:43.743Z,10.62
2023-04-11T04:49:58.679Z,10.38
2023-04-11T04:55:04.137Z,10.25
2023-04-11T05:00:14.146Z,10.19
2023-04-11T05:05:22.697Z,10.09
2023-04-11T05:10:28.240Z,10.25
2023-04-11T05:15:37.004Z,10.07
2023-04-11T05:20:42.240Z,9.57
2023-04-11T05:25:51.191Z,9.34
2023-04-11T05:31:01.757Z,9.31
2023-04-11T05:36:08.651Z,9.03
2023-04-11T05:41:14.849Z,9.03
2023-04-11T05:46:23.169Z,8.78
2023-04-11T05:51:29.083Z,8.82
2023-04-11T05:56:59.206Z,8.90
2023-04-11T06:02:14.671Z,8.83
2023-04-11T06:07:24.063Z,8.71
2023-04-11T06:12:45.262Z,8.35
2023-04-11T06:17:57.395Z,8.73
2023-04-11T06:23:15.647Z,8.68
2023-04-11T06:28:24.899Z,8.70
2023-04-11T06:33:37.585Z,8.80
2023-04-11T06:38:43.558Z,8.79
2023-04-11T06:43:51.541Z,9.11
2023-04-11T06:49:07.578Z,9.42
2023-04-11T06:54:16.606Z,9.13
2023-04-11T06:59:34.313Z,9.58
2023-04-11T07:04:47.865Z,9.57
2023-04-11T07:10:02.803Z,9.53
2023-04-11T07:15:10.775Z,9.80
2023-04-11T07:20:19.657Z,9.42
2023-04-11T07:25:35.137Z,9.53
2023-04-11T07:30:41.474Z,9.35
2023-04-11T07:35:51.103Z,9.54
2023-04-11T07:41:02.948Z,9.57
2023-04-11T07:46:09.681Z,9.65
2023-04-11T07:51:19.156Z,9.58
2023-04-11T07:56:24.436Z,9.49
2023-04-11T08:01:39.214Z,9.71
2023-04-11T08:06:58.841Z,9.96
2023-04-11T08:12:15.152Z,10.02
2023-04-11T08:17:28.302Z,9.63
2023-04-11T08:22:45.255Z,9.93
2023-04-11T08:27:51.714Z,9.84
2023-04-11T08:32:58.228Z,9.61
2023-04-11T08:38:09.334Z,10.13
2023-04-11T08:43:20.738Z,10.09
2023-04-11T08:48:28.101Z,10.04
2023-04-11T08:53:54.471Z,10.32
2023-04-11T08:59:07.295Z,10.09
2023-04-11T09:04:27.615Z,10.07
2023-04-11T09:09:51.838Z,10.25
2023-04-11T09:14:57.556Z,10.13
2023-04-11T09:20:19.308Z,10.14
2023-04-11T09:25:35.375Z,10.03
2023-04-11T09:30:52.901Z,9.95
2023-04-11T09:36:04.437Z,9.98
2023-04-11T09:41:15.403Z,9.92
2023-04-11T09:46:28.447Z,9.91
2023-04-11T09:51:37.024Z,10.30
2023-04-11T09:56:46.289Z,10.43
2023-04-11T10:02:04.093Z,11.07
2023-04-11T10:07:17.306Z,10.75
2023-04-11T10:12:37.737Z,11.51
2023-04-11T10:17:48.280Z,11.44
2023-04-11T10:23:04.384Z,11.54
2023-04-11T10:28:32.314Z,11.82
2023-04-11T10:33:39.039Z,11.82
2023-04-11T10:38:53.072Z,12.42
2023-04-11T10:44:25.464Z,12.56
2023-04-11T10:49:39.062Z,12.96
2023-04-11T10:54:45.699Z,13.77
2023-04-11T11:00:19.324Z,13.03
2023-04-11T11:05:27.188Z,12.63
2023-04-11T11:10:50.434Z,12.10
2023-04-11T11:16:06.769Z,8.75
2023-04-11T11:21:26.526Z,8.66
2023-04-11T11:26:43.942Z,8.47
2023-04-11T11:31:53.918Z,8.88
2023-04-11T11:37:05.293Z,9.98
2023-04-11T11:42:13.211Z,10.57
2023-04-11T11:47:23.307Z,9.72
2023-04-11T11:52:37.975Z,8.99
2023-04-11T11:57:50.114Z,8.96
2023-04-11T12:03:03.310Z,8.51
2023-04-11T12:08:10.929Z,9.10
2023-04-11T12:13:30.341Z,9.58
2023-04-11T12:18:38.625Z,9.94
2023-04-11T12:23:44.571Z,10.34
2023-04-11T12:28:51.059Z,11.10
2023-04-11T12:33:59.262Z,10.42
2023-04-11T12:39:04.664Z,11.15
2023-04-11T12:44:13.741Z,11.58
2023-04-11T12:49:22.713Z,11.33
2023-04-11T12:54:29.775Z,11.86
2023-04-11T12:59:36.079Z,12.13
2023-04-11T13:04:56.249Z,12.22
2023-04-11T13:10:02.024Z,11.99
2023-04-11T13:15:19.842Z,12.55
2023-04-11T13:20:33.817Z,12.00
2023-04-11T13:25:39.275Z,11.60
2023-04-11T13:30:46.325Z,11.30
2023-04-11T13:36:01.988Z,11.34
2023-04-11T13:41:13.790Z,12.30
2023-04-11T13:46:23.523Z,12.01
2023-04-11T13:51:33.563Z,11.10
2023-04-11T13:56:39.126Z,10.30
2023-04-11T14:01:52.302Z,9.90
2023-04-11T14:07:02.222Z,9.82
2023-04-11T14:12:07.881Z,9.42
2023-04-11T14:17:14.042Z,9.48
2023-04-11T14:22:27.944Z,10.17
2023-04-11T14:27:34.928Z,10.05
2023-04-11T14:32:40.289Z,10.51
2023-04-11T14:37:52.482Z,10.42
2023-04-11T14:42:59.388Z,11.23
2023-04-11T14:48:15.172Z,11.30
2023-04-11T14:53:25.795Z,10.21
2023-04-11T14:58:33.862Z,10.06
2023-04-11T15:03:39.292Z,10.06
2023-04-11T15:08:52.653Z,9.58
2023-04-11T15:14:03.709Z,9.50
2023-04-11T15:19:11.465Z,9.94
2023-04-11T15:24:22.578Z,10.07
2023-04-11T15:29:27.956Z,10.40
2023-04-11T15:34:40.558Z,10.39
2023-04-11T15:39:54.102Z,10.47
2023-04-11T15:45:04.128Z,10.35
2023-04-11T15:50:13.718Z,10.23
2023-04-11T15:55:23.802Z,10.40
2023-04-11T16:00:29.661Z,10.62
2023-04-11T16:05:42.013Z,10.77
2023-04-11T16:10:52.095Z,10.61
2023-04-11T16:16:02.163Z,10.94
2023-04-11T16:21:16.058Z,10.77
2023-04-11T16:26:24.742Z,10.69
2023-04-11T16:31:30.038Z,10.36
2023-04-11T16:36:35.746Z,10.40
2023-04-11T16:41:45.942Z,10.20
2023-04-11T16:46:52.861Z,10.18
2023-04-11T16:51:58.357Z,10.30
2023-04-11T16:57:09.058Z,10.35
2023-04-11T17:02:14.740Z,10.24
2023-04-11T17:07:20.421Z,10.23
2023-04-11T17:12:34.678Z,10.38
2023-04-11T17:17:40.416Z,10.36
2023-04-11T17:22:47.519Z,10.14
2023-04-11T17:27:57.434Z,10.10
2023-04-11T17:33:04.966Z,10.13
2023-04-11T17:38:10.895Z,9.83
2023-04-11T17:43:19.251Z,9.85
2023-04-11T17:48:25.596Z,9.61
2023-04-11T17:53:31.242Z,9.71
2023-04-11T17:58:45.299Z,9.63
2023-04-11T18:03:52.897Z,9.39
2023-04-11T18:09:04.693Z,9.20
2023-04-11T18:14:12.741Z,9.09
2023-04-11T18:19:18.242Z,9.32
2023-04-11T18:24:23.879Z,8.99
2023-04-11T18:29:32.762Z,9.02
2023-04-11T18:34:38.693Z,9.06
2023-04-11T18:39:44.406Z,8.68
2023-04-11T18:44:59.500Z,8.87
2023-04-11T18:50:06.105Z,8.67
2023-04-11T18:55:13.922Z,8.80
2023-04-11T19:00:25.726Z,8.62
2023-04-11T19:05:36.874Z,8.31
2023-04-11T19:10:43.681Z,8.11
2023-04-11T19:15:54.441Z,8.06
2023-04-11T19:21:08.223Z,8.24
2023-04-11T19:26:14.225Z,7.89
2023-04-11T19:31:29.223Z,7.94
2023-04-11T19:36:41.038Z,7.77
2023-04-11T19:41:57.118Z,7.75
2023-04-11T19:47:15.763Z,8.34
2023-04-11T19:52:32.731Z,8.27
2023-04-11T19:57:44.091Z,8.23
2023-04-11T20:02:55.273Z,7.87
2023-04-11T20:08:12.493Z,7.96
2023-04-11T20:13:21.817Z,7.74
2023-04-11T20:18:30.795Z,7.74
2023-04-11T20:23:42.220Z,7.71
2023-04-11T20:28:52.976Z,7.76
2023-04-11T20:34:02.895Z,7.33
2023-04-11T20:39:09.441Z,7.36
2023-04-11T20:44:24.113Z,7.29
2023-04-11T20:49:34.892Z,7.35
2023-04-11T20:54:43.124Z,7.06
2023-04-11T20:59:52.994Z,7.29
2023-04-11T21:05:03.788Z,7.27
2023-04-11T21:10:10.959Z,7.33
2023-04-11T21:15:17.464Z,7.36
2023-04-11T21:20:37.597Z,7.29
2023-04-11T21:25:43.953Z,6.81
2023-04-11T21:30:49.414Z,6.41
2023-04-11T21:36:03.540Z,6.57
2023-04-11T21:41:09.458Z,6.44
2023-04-11T21:46:15.873Z,6.32
2023-04-11T21:51:25.248Z,6.37
2023-04-11T21:56:33.607Z,6.69
2023-04-11T22:01:39.192Z,6.64
2023-04-11T22:06:49.479Z,6.69
2023-04-11T22:11:55.187Z,6.44
2023-04-11T22:17:01.314Z,5.96
2023-04-11T22:22:11.717Z,5.50
2023-04-11T22:27:19.777Z,5.24
2023-04-11T22:32:26.925Z,5.27
2023-04-11T22:37:37.709Z,5.12
2023-04-11T22:42:48.390Z,5.04
2023-04-11T22:47:57.452Z,5.03
2023-04-11T22:53:05.882Z,4.71
2023-04-11T22:58:11.592Z,4.69
2023-04-11T23:03:23.440Z,4.60
2023-04-11T23:08:34.126Z,4.58
2023-04-11T23:13:47.458Z,4.44
2023-04-11T23:18:52.837Z,4.33
2023-04-11T23:24:03.420Z,4.06
2023-04-11T23:29:12.138Z,4.09
2023-04-11T23:34:17.810Z,4.07
2023-04-11T23:39:31.481Z,3.92
2023-04-11T23:44:41.703Z,4.02
2023-04-11T23:50:18.471Z,3.86
2023-04-11T23:55:33.253Z,4.13
